createdAt,value
2023-01-19T00:00:28.088Z,18.17
2023-01-19T00:02:55.069Z,19.27
2023-01-19T00:05:21.894Z,17.73
2023-01-19T00:07:48.489Z,20.00
2023-01-19T00:10:14.972Z,18.73
2023-01-19T00:12:41.434Z,18.90
2023-01-19T00:15:08.518Z,19.13
2023-01-19T00:17:35.028Z,18.33
2023-01-19T00:20:01.533Z,19.33
2023-01-19T00:22:28.002Z,18.23
2023-01-19T00:24:54.509Z,17.13
2023-01-19T00:27:21.032Z,17.90
2023-01-19T00:29:47.525Z,13.13
2023-01-19T00:32:14.074Z,17.33
2023-01-19T00:34:49.408Z,17.20
2023-01-19T00:37:17.102Z,16.37
2023-01-19T00:39:43.907Z,15.47
2023-01-19T00:42:32.058Z,17.73
2023-01-19T00:44:58.556Z,17.80
2023-01-19T00:47:25.487Z,16.83
2023-01-19T00:49:52.043Z,15.27
2023-01-19T00:52:18.502Z,16.07
2023-01-19T00:54:44.977Z,17.07
2023-01-19T00:57:11.457Z,16.53
2023-01-19T00:59:37.935Z,16.27
2023-01-19T01:02:04.611Z,16.10
2023-01-19T01:04:31.319Z,16.10
2023-01-19T01:06:57.766Z,15.23
2023-01-19T01:09:24.548Z,14.63
2023-01-19T01:11:51.004Z,14.23
2023-01-19T01:14:18.253Z,13.80
2023-01-19T01:16:45.018Z,13.97
2023-01-19T01:19:11.583Z,14.67
2023-01-19T01:21:38.135Z,14.17
2023-01-19T01:24:05.381Z,15.20
2023-01-19T01:26:31.853Z,15.03
2023-01-19T01:28:58.370Z,14.47
2023-01-19T01:31:25.472Z,14.83
2023-01-19T01:33:52.044Z,14.00
2023-01-19T01:36:21.338Z,14.30
2023-01-19T01:38:47.974Z,15.40
2023-01-19T01:41:14.639Z,15.03
2023-01-19T01:43:45.889Z,14.43
2023-01-19T01:46:15.795Z,14.73
2023-01-19T01:48:46.315Z,14.43
2023-01-19T01:51:24.467Z,14.43
2023-01-19T01:54:04.041Z,13.17
2023-01-19T01:56:42.978Z,14.67
2023-01-19T01:59:13.732Z,14.63
2023-01-19T02:01:59.033Z,14.50
2023-01-19T02:04:26.619Z,14.33
2023-01-19T02:07:11.815Z,14.87
2023-01-19T02:09:56.819Z,15.40
2023-01-19T02:12:41.996Z,13.30
2023-01-19T02:15:20.204Z,14.47
2023-01-19T02:17:46.980Z,14.27
2023-01-19T02:20:13.925Z,13.83
2023-01-19T02:22:50.334Z,13.87
2023-01-19T02:25:19.331Z,13.50
2023-01-19T02:27:46.057Z,13.33
2023-01-19T02:30:13.856Z,13.10
2023-01-19T02:32:40.331Z,15.03
2023-01-19T02:35:07.244Z,15.67
2023-01-19T02:37:37.554Z,13.87
2023-01-19T02:40:05.659Z,14.80
2023-01-19T02:42:38.283Z,14.63
2023-01-19T02:45:06.964Z,16.13
2023-01-19T02:47:42.021Z,14.97
2023-01-19T02:50:38.396Z,15.47
2023-01-19T02:53:29.724Z,16.47
2023-01-19T02:56:07.216Z,16.37
2023-01-19T02:58:49.245Z,15.80
2023-01-19T03:01:30.247Z,15.83
2023-01-19T03:04:26.513Z,15.70
2023-01-19T03:07:00.767Z,13.80
2023-01-19T03:09:48.950Z,15.07
2023-01-19T03:12:41.619Z,15.57
2023-01-19T03:15:16.272Z,14.63
2023-01-19T03:17:44.543Z,15.93
2023-01-19T03:20:14.035Z,16.33
2023-01-19T03:22:41.046Z,16.63
2023-01-19T03:25:07.815Z,16.10
2023-01-19T03:27:41.247Z,16.07
2023-01-19T03:30:18.697Z,15.70
2023-01-19T03:32:49.928Z,16.53
2023-01-19T03:35:17.646Z,16.67
2023-01-19T03:37:45.358Z,16.63
2023-01-19T03:40:12.454Z,17.27
2023-01-19T03:42:39.598Z,16.00
2023-01-19T03:45:07.030Z,15.60
2023-01-19T03:47:34.060Z,17.03
2023-01-19T03:50:03.048Z,15.43
2023-01-19T03:52:33.515Z,16.40
2023-01-19T03:55:01.325Z,16.77
2023-01-19T03:57:27.959Z,17.07
2023-01-19T03:59:54.455Z,16.17
2023-01-19T04:02:20.969Z,15.60
2023-01-19T04:04:47.800Z,15.30
2023-01-19T04:07:14.375Z,14.30
2023-01-19T04:09:40.904Z,16.07
2023-01-19T04:12:07.823Z,14.80
2023-01-19T04:14:34.289Z,18.83
2023-01-19T04:17:00.770Z,16.07
2023-01-19T04:19:27.239Z,17.07
2023-01-19T04:21:53.742Z,16.80
2023-01-19T04:24:20.195Z,17.50
2023-01-19T04:26:46.707Z,16.90
2023-01-19T04:29:14.363Z,17.80
2023-01-19T04:31:41.165Z,15.97
2023-01-19T04:34:07.605Z,16.23
2023-01-19T04:36:34.095Z,13.73
2023-01-19T04:39:00.513Z,13.97
2023-01-19T04:41:26.968Z,13.90
2023-01-19T04:43:53.545Z,14.83
2023-01-19T04:46:20.023Z,15.07
2023-01-19T04:48:46.496Z,15.50
2023-01-19T04:51:12.978Z,14.60
2023-01-19T04:53:39.521Z,13.70
2023-01-19T04:56:06.071Z,15.83
2023-01-19T04:58:32.551Z,16.07
2023-01-19T05:00:59.153Z,16.57
2023-01-19T05:03:26.656Z,16.03
2023-01-19T05:05:53.393Z,16.63
2023-01-19T05:08:19.950Z,15.87
2023-01-19T05:10:46.425Z,15.53
2023-01-19T05:13:14.108Z,15.13
2023-01-19T05:15:40.547Z,14.70
2023-01-19T05:18:07.000Z,16.17
2023-01-19T05:20:33.460Z,14.90
2023-01-19T05:23:00.300Z,14.20
2023-01-19T05:25:26.983Z,14.00
2023-01-19T05:27:53.480Z,15.00
2023-01-19T05:30:19.976Z,14.07
2023-01-19T05:32:46.767Z,14.47
2023-01-19T05:35:20.195Z,15.43
2023-01-19T05:37:51.551Z,15.20
2023-01-19T05:40:18.187Z,13.93
2023-01-19T05:42:44.639Z,15.60
2023-01-19T05:45:11.944Z,16.93
2023-01-19T05:47:38.412Z,16.90
2023-01-19T05:50:05.350Z,16.77
2023-01-19T05:52:31.921Z,16.67
2023-01-19T05:54:58.353Z,17.37
2023-01-19T05:57:24.885Z,15.17
2023-01-19T05:59:51.330Z,17.23
2023-01-19T06:02:17.839Z,16.73
2023-01-19T06:04:44.843Z,16.73
2023-01-19T06:07:11.369Z,17.50
2023-01-19T06:09:37.838Z,17.67
2023-01-19T06:12:04.644Z,16.97
2023-01-19T06:14:32.501Z,17.53
2023-01-19T06:16:58.937Z,16.90
2023-01-19T06:19:25.596Z,17.97
2023-01-19T06:21:52.443Z,17.60
2023-01-19T06:24:19.416Z,17.57
2023-01-19T06:26:46.075Z,17.43
2023-01-19T06:29:13.785Z,17.50
2023-01-19T06:31:40.801Z,18.00
2023-01-19T06:34:07.519Z,16.43
2023-01-19T06:36:34.015Z,18.30
2023-01-19T06:39:03.367Z,16.77
2023-01-19T06:41:29.982Z,15.97
2023-01-19T06:43:56.493Z,17.77
2023-01-19T06:46:22.984Z,16.83
2023-01-19T06:48:49.430Z,17.73
2023-01-19T06:51:15.873Z,18.10
2023-01-19T06:53:42.344Z,17.90
2023-01-19T06:56:09.682Z,15.77
2023-01-19T06:58:36.686Z,17.57
2023-01-19T07:01:04.985Z,19.87
2023-01-19T07:03:31.835Z,21.53
2023-01-19T07:06:00.857Z,20.33
2023-01-19T07:08:27.338Z,21.50
2023-01-19T07:11:25.564Z,19.80
2023-01-19T07:13:51.410Z,20.00
2023-01-19T07:16:17.899Z,20.47
2023-01-19T07:18:45.269Z,21.13
2023-01-19T07:21:11.722Z,22.00
2023-01-19T07:23:38.615Z,21.37
2023-01-19T07:26:05.217Z,19.30
2023-01-19T07:28:32.928Z,20.13
2023-01-19T07:30:59.601Z,21.47
2023-01-19T07:33:26.308Z,20.93
2023-01-19T07:35:53.261Z,22.67
2023-01-19T07:38:20.459Z,23.07
2023-01-19T07:40:47.180Z,23.37
2023-01-19T07:43:14.534Z,25.17
2023-01-19T07:45:41.343Z,25.00
2023-01-19T07:48:07.892Z,23.60
2023-01-19T07:50:34.393Z,24.07
2023-01-19T07:53:08.499Z,23.37
2023-01-19T07:55:35.376Z,21.03
2023-01-19T07:58:03.964Z,22.97
2023-01-19T08:00:30.578Z,20.60
2023-01-19T08:03:00.483Z,20.13
2023-01-19T08:05:29.200Z,19.97
2023-01-19T08:08:00.387Z,20.00
2023-01-19T08:10:28.479Z,20.07
2023-01-19T08:12:56.078Z,18.60
2023-01-19T08:15:24.541Z,19.63
2023-01-19T08:18:01.067Z,20.27
2023-01-19T08:20:28.930Z,19.87
2023-01-19T08:23:00.144Z,21.27
2023-01-19T08:25:37.490Z,20.07
2023-01-19T08:28:05.394Z,20.83
2023-01-19T08:30:33.064Z,21.07
2023-01-19T08:33:08.081Z,21.17
2023-01-19T08:35:37.081Z,21.50
2023-01-19T08:38:05.078Z,19.77
2023-01-19T08:40:35.935Z,23.23
2023-01-19T08:43:09.264Z,23.30
2023-01-19T08:45:36.820Z,21.50
2023-01-19T08:48:04.269Z,20.77
2023-01-19T08:50:32.500Z,20.03
2023-01-19T08:53:01.360Z,21.17
2023-01-19T08:55:28.828Z,22.43
2023-01-19T08:58:00.500Z,22.67
2023-01-19T09:00:27.708Z,21.70
2023-01-19T09:02:54.979Z,20.83
2023-01-19T09:05:21.569Z,20.17
2023-01-19T09:07:48.239Z,21.90
2023-01-19T09:10:15.829Z,23.27
2023-01-19T09:12:43.523Z,23.20
2023-01-19T09:15:10.894Z,22.73
2023-01-19T09:17:37.497Z,23.83
2023-01-19T09:20:05.970Z,24.57
2023-01-19T09:22:33.322Z,26.57
2023-01-19T09:25:00.338Z,25.93
2023-01-19T09:27:26.785Z,22.43
2023-01-19T09:29:54.070Z,22.47
2023-01-19T09:32:21.264Z,23.17
2023-01-19T09:34:48.024Z,23.73
2023-01-19T09:37:16.123Z,24.50
2023-01-19T09:39:42.730Z,22.20
2023-01-19T09:42:22.046Z,23.57
2023-01-19T09:44:50.291Z,22.67
2023-01-19T09:47:18.472Z,23.43
2023-01-19T09:49:48.754Z,23.80
2023-01-19T09:52:15.731Z,25.07
2023-01-19T09:54:44.170Z,23.37
2023-01-19T09:57:11.800Z,23.97
2023-01-19T09:59:38.928Z,23.67
2023-01-19T10:02:34.077Z,22.10
2023-01-19T10:05:20.315Z,22.37
2023-01-19T10:08:08.940Z,22.23
2023-01-19T10:10:37.391Z,23.43
2023-01-19T10:13:45.744Z,22.67
2023-01-19T10:16:15.297Z,21.03
2023-01-19T10:18:47.684Z,20.47
2023-01-19T10:21:28.366Z,21.77
2023-01-19T10:24:19.831Z,20.67
2023-01-19T10:26:49.236Z,20.93
2023-01-19T10:29:23.037Z,19.53
2023-01-19T10:31:52.400Z,19.63
2023-01-19T10:34:23.688Z,19.43
2023-01-19T10:36:57.438Z,19.87
2023-01-19T10:39:23.933Z,20.53
2023-01-19T10:41:52.677Z,19.00
2023-01-19T10:44:30.101Z,19.93
2023-01-19T10:46:58.838Z,18.40
2023-01-19T10:49:42.551Z,18.20
2023-01-19T10:52:27.154Z,17.80
2023-01-19T10:54:54.266Z,18.80
2023-01-19T10:57:49.304Z,18.40
2023-01-19T11:00:37.819Z,19.40
2023-01-19T11:03:30.183Z,18.93
2023-01-19T11:06:15.529Z,18.77
2023-01-19T11:08:43.793Z,21.87
2023-01-19T11:11:12.433Z,24.53
2023-01-19T11:13:42.703Z,22.00
2023-01-19T11:16:28.026Z,26.07
2023-01-19T11:18:56.367Z,24.87
2023-01-19T11:21:26.063Z,24.40
2023-01-19T11:23:58.228Z,20.53
2023-01-19T11:26:25.655Z,20.27
2023-01-19T11:28:54.663Z,20.43
2023-01-19T11:31:27.434Z,19.13
2023-01-19T11:33:56.571Z,20.00
2023-01-19T11:36:25.321Z,20.03
2023-01-19T11:38:53.971Z,19.27
2023-01-19T11:41:26.512Z,20.37
2023-01-19T11:43:55.667Z,20.63
2023-01-19T11:46:24.753Z,20.43
2023-01-19T11:49:36.202Z,19.60
2023-01-19T11:52:11.192Z,19.53
2023-01-19T11:54:47.443Z,19.53
2023-01-19T11:57:17.125Z,20.13
2023-01-19T11:59:44.632Z,20.97
2023-01-19T12:02:21.361Z,19.97
2023-01-19T12:04:48.505Z,20.07
2023-01-19T12:07:18.924Z,19.37
2023-01-19T12:09:47.750Z,19.97
2023-01-19T12:12:35.260Z,17.87
2023-01-19T12:15:30.027Z,18.40
2023-01-19T12:17:59.883Z,17.43
2023-01-19T12:20:38.517Z,16.50
2023-01-19T12:23:11.036Z,18.23
2023-01-19T12:25:43.528Z,17.47
2023-01-19T12:28:13.660Z,17.60
2023-01-19T12:30:40.270Z,17.30
2023-01-19T12:33:34.939Z,18.37
2023-01-19T12:36:10.563Z,17.23
2023-01-19T12:38:47.760Z,17.10
2023-01-19T12:41:25.318Z,17.10
2023-01-19T12:44:16.380Z,16.47
2023-01-19T12:46:50.116Z,15.20
2023-01-19T12:49:27.237Z,15.97
2023-01-19T12:52:11.232Z,15.40
2023-01-19T12:54:38.080Z,16.03
2023-01-19T12:57:18.295Z,14.57
2023-01-19T12:59:44.891Z,14.80
2023-01-19T13:02:20.583Z,14.00
2023-01-19T13:05:15.057Z,13.73
2023-01-19T13:08:04.876Z,12.90
2023-01-19T13:10:54.037Z,13.50
2023-01-19T13:13:30.479Z,12.80
2023-01-19T13:16:27.448Z,13.37
2023-01-19T13:19:06.255Z,13.47
2023-01-19T13:21:35.717Z,10.43
2023-01-19T13:24:04.712Z,10.37
2023-01-19T13:26:33.597Z,9.70
2023-01-19T13:29:07.585Z,9.63
2023-01-19T13:31:35.464Z,9.33
2023-01-19T13:34:02.997Z,8.93
2023-01-19T13:36:35.804Z,9.80
2023-01-19T13:39:05.653Z,13.27
2023-01-19T13:41:36.170Z,12.07
2023-01-19T13:44:12.833Z,12.20
2023-01-19T13:46:40.631Z,13.33
2023-01-19T13:49:40.553Z,13.60
2023-01-19T13:52:07.891Z,11.50
2023-01-19T13:54:34.433Z,11.17
2023-01-19T13:57:00.877Z,9.87
2023-01-19T13:59:27.365Z,9.80
2023-01-19T14:01:54.406Z,8.93
2023-01-19T14:04:32.231Z,8.93
2023-01-19T14:07:02.309Z,9.13
2023-01-19T14:09:29.049Z,8.93
2023-01-19T14:12:17.401Z,10.07
2023-01-19T14:14:46.806Z,10.47
2023-01-19T14:17:28.208Z,9.83
2023-01-19T14:19:57.030Z,9.80
2023-01-19T14:22:42.651Z,9.03
2023-01-19T14:25:28.325Z,9.23
2023-01-19T14:28:49.168Z,8.93
2023-01-19T14:31:23.352Z,9.10
2023-01-19T14:33:52.749Z,8.60
2023-01-19T14:36:28.977Z,8.97
2023-01-19T14:38:58.512Z,9.03
2023-01-19T14:41:36.610Z,8.70
2023-01-19T14:44:11.117Z,8.30
2023-01-19T14:46:38.189Z,8.27
2023-01-19T14:49:06.148Z,8.47
2023-01-19T14:51:32.806Z,7.80
2023-01-19T14:54:00.809Z,7.80
2023-01-19T14:56:32.357Z,7.57
2023-01-19T14:59:01.033Z,8.40
2023-01-19T15:01:28.731Z,9.60
2023-01-19T15:03:58.717Z,8.60
2023-01-19T15:06:26.088Z,6.77
2023-01-19T15:08:56.058Z,5.83
2023-01-19T15:11:30.431Z,6.10
2023-01-19T15:13:57.541Z,6.30
2023-01-19T15:16:24.869Z,5.87
2023-01-19T15:18:51.628Z,5.67
2023-01-19T15:21:26.796Z,6.57
2023-01-19T15:23:58.163Z,6.70
2023-01-19T15:26:25.826Z,7.20
2023-01-19T15:28:52.577Z,6.13
2023-01-19T15:31:23.864Z,6.40
2023-01-19T15:34:11.720Z,5.80
2023-01-19T15:36:38.239Z,6.07
2023-01-19T15:39:04.708Z,5.60
2023-01-19T15:41:31.229Z,6.43
2023-01-19T15:43:58.468Z,7.13
2023-01-19T15:46:25.836Z,6.80
2023-01-19T15:48:52.965Z,6.87
2023-01-19T15:51:22.004Z,7.60
2023-01-19T15:53:49.386Z,7.83
2023-01-19T15:56:21.868Z,8.30
2023-01-19T15:58:48.297Z,8.37
2023-01-19T16:01:17.117Z,7.27
2023-01-19T16:03:43.815Z,7.17
2023-01-19T16:06:10.777Z,6.90
2023-01-19T16:08:37.722Z,8.10
2023-01-19T16:11:15.378Z,8.87
2023-01-19T16:13:46.189Z,8.77
2023-01-19T16:16:16.310Z,7.03
2023-01-19T16:18:43.038Z,6.70
2023-01-19T16:21:09.528Z,7.40
2023-01-19T16:23:36.031Z,6.60
2023-01-19T16:26:07.696Z,6.83
2023-01-19T16:28:35.795Z,6.27
2023-01-19T16:31:02.339Z,6.30
2023-01-19T16:33:28.869Z,6.70
2023-01-19T16:35:55.403Z,5.87
2023-01-19T16:38:23.438Z,6.97
2023-01-19T16:40:49.881Z,7.83
2023-01-19T16:43:16.540Z,8.53
2023-01-19T16:46:00.317Z,6.93
2023-01-19T16:48:27.531Z,13.80
2023-01-19T16:51:05.803Z,11.70
2023-01-19T16:53:37.151Z,16.07
2023-01-19T16:56:13.972Z,15.30
2023-01-19T16:58:41.545Z,13.30
2023-01-19T17:01:19.729Z,11.20
2023-01-19T17:03:47.334Z,10.43
2023-01-19T17:06:15.796Z,9.60
2023-01-19T17:08:42.266Z,8.67
2023-01-19T17:11:11.168Z,9.77
2023-01-19T17:13:37.831Z,8.37
2023-01-19T17:16:05.386Z,7.53
2023-01-19T17:18:34.369Z,7.80
2023-01-19T17:21:07.655Z,6.40
2023-01-19T17:23:35.227Z,6.27
2023-01-19T17:26:02.205Z,8.13
2023-01-19T17:28:28.736Z,6.40
2023-01-19T17:30:55.307Z,6.27
2023-01-19T17:33:23.135Z,5.73
2023-01-19T17:35:49.816Z,5.70
2023-01-19T17:38:16.727Z,5.40
2023-01-19T17:40:43.176Z,4.30
2023-01-19T17:43:09.628Z,4.93
2023-01-19T17:45:36.945Z,4.37
2023-01-19T17:48:04.438Z,3.70
2023-01-19T17:50:32.539Z,3.27
2023-01-19T17:52:59.024Z,5.27
2023-01-19T17:55:25.535Z,7.50
2023-01-19T17:57:52.060Z,5.60
2023-01-19T18:00:19.013Z,4.10
2023-01-19T18:02:49.129Z,4.03
2023-01-19T18:05:15.663Z,4.27
2023-01-19T18:07:42.212Z,4.33
2023-01-19T18:10:09.498Z,3.23
2023-01-19T18:12:35.997Z,3.27
2023-01-19T18:15:03.357Z,3.40
2023-01-19T18:17:30.639Z,3.10
2023-01-19T18:19:57.168Z,3.40
2023-01-19T18:22:23.713Z,3.47
2023-01-19T18:24:50.323Z,3.13
2023-01-19T18:27:16.953Z,4.07
2023-01-19T18:29:44.030Z,3.20
2023-01-19T18:32:10.812Z,2.93
2023-01-19T18:34:38.446Z,2.77
2023-01-19T18:37:04.902Z,2.87
2023-01-19T18:39:31.378Z,3.13
2023-01-19T18:41:57.895Z,2.97
2023-01-19T18:44:24.437Z,3.17
2023-01-19T18:46:50.995Z,3.43
2023-01-19T18:49:17.718Z,3.33
2023-01-19T18:51:44.217Z,2.83
2023-01-19T18:54:11.039Z,2.80
2023-01-19T18:56:37.483Z,3.00
2023-01-19T18:59:09.023Z,3.03
2023-01-19T19:01:40.004Z,3.10
2023-01-19T19:04:08.190Z,3.13
2023-01-19T19:06:35.767Z,3.40
2023-01-19T19:09:03.318Z,2.97
2023-01-19T19:11:29.965Z,3.83
2023-01-19T19:13:59.406Z,3.03
2023-01-19T19:16:25.966Z,3.40
2023-01-19T19:18:53.300Z,3.30
2023-01-19T19:21:20.834Z,2.70
2023-01-19T19:23:55.395Z,3.50
2023-01-19T19:26:23.592Z,2.80
2023-01-19T19:28:50.177Z,3.10
2023-01-19T19:31:20.608Z,3.17
2023-01-19T19:33:49.172Z,3.50
2023-01-19T19:36:15.681Z,3.73
2023-01-19T19:38:44.522Z,3.83
2023-01-19T19:41:17.363Z,4.33
2023-01-19T19:43:44.680Z,3.20
2023-01-19T19:46:15.659Z,2.50
2023-01-19T19:48:42.869Z,2.70
2023-01-19T19:51:18.576Z,3.00
2023-01-19T19:53:45.853Z,3.17
2023-01-19T19:56:14.016Z,3.30
2023-01-19T19:58:42.448Z,3.40
2023-01-19T20:01:21.137Z,2.83
2023-01-19T20:03:50.299Z,2.67
2023-01-19T20:06:21.306Z,3.10
2023-01-19T20:08:49.138Z,3.00
2023-01-19T20:11:21.141Z,2.70
2023-01-19T20:13:47.796Z,3.43
2023-01-19T20:16:16.609Z,2.93
2023-01-19T20:18:44.954Z,3.07
2023-01-19T20:21:17.175Z,2.73
2023-01-19T20:23:44.428Z,2.80
2023-01-19T20:26:43.677Z,2.50
2023-01-19T20:29:11.117Z,2.90
2023-01-19T20:31:47.332Z,3.43
2023-01-19T20:34:16.768Z,3.17
2023-01-19T20:36:46.794Z,2.87
2023-01-19T20:39:13.277Z,2.67
2023-01-19T20:41:51.064Z,2.40
2023-01-19T20:44:21.456Z,2.03
2023-01-19T20:46:48.681Z,2.20
2023-01-19T20:49:15.333Z,2.13
2023-01-19T20:51:45.048Z,2.43
2023-01-19T20:54:13.620Z,2.77
2023-01-19T20:56:41.908Z,2.13
2023-01-19T20:59:09.605Z,2.23
2023-01-19T21:01:37.567Z,2.67
2023-01-19T21:04:04.358Z,2.40
2023-01-19T21:06:31.367Z,2.50
2023-01-19T21:08:57.870Z,2.27
2023-01-19T21:11:24.482Z,2.77
2023-01-19T21:13:56.092Z,2.60
2023-01-19T21:16:25.665Z,2.20
2023-01-19T21:18:53.148Z,2.23
2023-01-19T21:21:29.880Z,2.90
2023-01-19T21:23:58.944Z,2.43
2023-01-19T21:26:25.662Z,2.40
2023-01-19T21:28:52.445Z,5.87
2023-01-19T21:31:20.895Z,2.40
2023-01-19T21:33:49.292Z,5.03
2023-01-19T21:36:16.127Z,2.87
2023-01-19T21:38:43.054Z,3.87
2023-01-19T21:41:12.631Z,3.10
2023-01-19T21:43:44.026Z,3.03
2023-01-19T21:46:11.273Z,2.37
2023-01-19T21:48:38.246Z,2.97
2023-01-19T21:51:05.087Z,2.87
2023-01-19T21:53:31.583Z,2.67
2023-01-19T21:55:58.860Z,2.57
2023-01-19T21:58:25.513Z,2.77
2023-01-19T22:00:58.970Z,2.60
2023-01-19T22:03:27.301Z,3.23
2023-01-19T22:05:54.305Z,2.60
2023-01-19T22:08:20.738Z,2.40
2023-01-19T22:10:47.227Z,2.70
2023-01-19T22:13:14.102Z,2.40
2023-01-19T22:15:40.602Z,2.80
2023-01-19T22:18:07.113Z,2.40
2023-01-19T22:20:33.562Z,2.30
2023-01-19T22:23:00.104Z,2.70
2023-01-19T22:25:41.990Z,2.40
2023-01-19T22:28:08.439Z,3.30
2023-01-19T22:30:34.962Z,3.30
2023-01-19T22:33:01.478Z,2.80
2023-01-19T22:35:28.334Z,2.40
2023-01-19T22:37:54.779Z,2.93
2023-01-19T22:40:21.540Z,2.63
2023-01-19T22:42:57.198Z,2.70
2023-01-19T22:45:48.658Z,2.83
2023-01-19T22:48:15.085Z,2.47
2023-01-19T22:50:41.555Z,2.50
2023-01-19T22:53:08.016Z,3.03
2023-01-19T22:55:34.475Z,2.83
2023-01-19T22:58:00.893Z,2.50
2023-01-19T23:00:27.368Z,2.53
2023-01-19T23:02:53.809Z,2.97
2023-01-19T23:05:20.325Z,2.80
2023-01-19T23:07:46.771Z,2.37
2023-01-19T23:10:13.353Z,2.77
2023-01-19T23:12:39.875Z,2.73
2023-01-19T23:15:06.906Z,2.63
2023-01-19T23:17:33.373Z,2.63
2023-01-19T23:19:59.902Z,3.07
2023-01-19T23:22:26.383Z,3.00
2023-01-19T23:24:52.822Z,2.90
2023-01-19T23:27:19.318Z,3.03
2023-01-19T23:29:45.977Z,3.30
2023-01-19T23:32:12.463Z,3.27
2023-01-19T23:34:38.942Z,2.80
2023-01-19T23:37:05.461Z,3.10
2023-01-19T23:39:31.915Z,2.80
2023-01-19T23:41:58.432Z,2.80
2023-01-19T23:44:24.925Z,3.33
2023-01-19T23:46:51.456Z,3.50
2023-01-19T23:49:18.157Z,3.23
2023-01-19T23:51:44.611Z,3.13
2023-01-19T23:54:12.276Z,3.40
2023-01-19T23:56:39.248Z,3.60
2023-01-19T23:59:11.023Z,3.20
